Time;durP1;ratioP1;P1;durP2;ratioP2;P2;SDS_P1;SDS_P2;PMS_P1;PMS_P2;Temp;Humidity;BMP_temperature;BMP_pressure;BME280_temperature;BME280_humidity;BME280_pressure;Samples;Min_cycle;Max_cycle;Signal;HPM_P1;HPM_P2
2021/04/16 00:00:12;;;;;;;16.25;6.53;;;;;;;3.86;89.58;100725.37;2773768;85;21172;-62
2021/04/16 00:04:17;;;;;;;9.90;7.22;;;;;;;3.79;89.57;100722.64;2773335;85;21208;-62
2021/04/16 00:08:26;;;;;;;14.35;7.62;;;;;;;3.74;89.62;100715.88;2773508;85;21183;-62
2021/04/16 00:12:29;;;;;;;9.25;6.83;;;;;;;3.71;89.92;100715.55;2773380;85;21153;-62
2021/04/16 00:16:33;;;;;;;8.60;7.37;;;;;;;3.70;90.11;100717.34;2773373;85;21637;-62
2021/04/16 00:20:37;;;;;;;10.45;8.60;;;;;;;3.71;90.15;100715.10;2772688;85;21184;-62
2021/04/16 00:24:40;;;;;;;10.45;8.25;;;;;;;3.73;90.46;100712.38;2819859;83;21171;-62
2021/04/16 00:28:43;;;;;;;15.45;7.40;;;;;;;3.76;90.35;100701.73;2771225;85;21172;-62
2021/04/16 00:32:46;;;;;;;11.83;9.30;;;;;;;3.78;90.34;100706.47;2819964;84;21160;-62
2021/04/16 00:36:53;;;;;;;11.40;8.53;;;;;;;3.79;90.11;100701.59;2770648;85;21170;-61
2021/04/16 00:41:00;;;;;;;13.28;10.32;;;;;;;3.77;90.27;100710.02;2819989;84;21180;-62
2021/04/16 00:45:06;;;;;;;10.93;8.93;;;;;;;3.79;90.48;100704.22;2810060;83;21729;-61
2021/04/16 00:49:19;;;;;;;9.93;7.63;;;;;;;3.78;90.30;100688.05;2771386;85;21196;-62
2021/04/16 00:53:24;;;;;;;9.13;8.23;;;;;;;3.77;90.17;100691.60;2770641;85;21679;-62
2021/04/16 00:57:27;;;;;;;12.43;10.98;;;;;;;3.78;90.16;100686.73;2746479;86;21179;-61
2021/04/16 01:01:30;;;;;;;15.58;8.05;;;;;;;3.79;90.07;100684.94;2771056;85;21200;-61
2021/04/16 01:05:34;;;;;;;10.25;8.13;;;;;;;3.77;90.04;100683.70;2771810;85;21132;-61
2021/04/16 01:09:37;;;;;;;9.38;7.72;;;;;;;3.75;90.13;100685.56;2770450;85;21173;-61
2021/04/16 01:13:41;;;;;;;14.35;8.63;;;;;;;3.74;90.11;100690.44;2780657;84;21149;-62
2021/04/16 01:17:46;;;;;;;8.80;7.83;;;;;;;3.73;90.21;100682.13;2747179;85;21512;-62
2021/04/16 01:22:01;;;;;;;11.33;9.33;;;;;;;3.75;90.18;100681.62;2745618;86;21151;-61
2021/04/16 01:26:07;;;;;;;9.93;8.60;;;;;;;3.74;90.10;100682.98;2722344;86;21170;-62
2021/04/16 01:30:18;;;;;;;7.97;6.25;;;;;;;3.78;90.12;100681.47;2791345;85;21771;-61
2021/04/16 01:34:25;;;;;;;9.78;8.15;;;;;;;3.77;90.16;100681.08;2742629;86;21141;-62
2021/04/16 01:38:28;;;;;;;7.50;6.80;;;;;;;3.76;90.23;100679.81;2743018;86;21168;-61
2021/04/16 01:42:31;;;;;;;7.55;6.30;;;;;;;3.78;90.37;100674.89;2743010;86;21189;-61
2021/04/16 01:46:57;;;;;;;7.33;6.72;;;;;;;3.79;90.26;100676.59;2743551;86;21207;-61
2021/04/16 01:51:00;;;;;;;9.67;4.97;;;;;;;3.77;90.14;100680.20;2743141;86;21153;-61
2021/04/16 01:55:06;;;;;;;5.60;4.65;;;;;;;3.75;90.22;100678.98;2791294;85;21574;-62
2021/04/16 01:59:14;;;;;;;7.03;6.12;;;;;;;;;;2791181;85;21151;-62
2021/04/16 02:03:17;;;;;;;8.48;4.47;;;;;;;3.78;90.37;100681.47;2791394;85;21168;-61
2021/04/16 02:07:20;;;;;;;5.10;4.58;;;;;;;3.78;90.29;100674.89;2743228;86;21168;-62
2021/04/16 02:11:23;;;;;;;7.28;5.75;;;;;;;3.79;90.38;100672.64;2745312;86;21623;-62
2021/04/16 02:15:26;;;;;;;7.45;5.40;;;;;;;3.81;90.28;100672.55;2748689;85;21625;-61
2021/04/16 02:19:29;;;;;;;12.15;8.55;;;;;;;3.81;90.27;100666.84;2820806;84;21157;-61
2021/04/16 02:23:32;;;;;;;9.25;7.12;;;;;;;3.81;90.20;100654.13;2820274;84;21174;-62
2021/04/16 02:27:36;;;;;;;10.90;6.30;;;;;;;3.83;90.30;100670.25;2820347;84;21170;-61
2021/04/16 02:31:42;;;;;;;9.85;7.00;;;;;;;3.86;90.27;100661.37;2820324;84;21166;-62
2021/04/16 02:35:47;;;;;;;9.75;6.80;;;;;;;3.87;90.44;100663.07;2820432;84;21119;-62
2021/04/16 02:39:51;;;;;;;10.78;7.65;;;;;;;3.90;90.37;100651.52;2820397;84;21203;-62
2021/04/16 02:43:54;;;;;;;13.20;9.80;;;;;;;3.94;90.40;100653.11;2820521;84;21162;-62
2021/04/16 02:47:57;;;;;;;5.65;4.50;;;;;;;3.98;90.23;100662.55;2820396;84;21142;-62
2021/04/16 02:52:01;;;;;;;11.53;6.92;;;;;;;3.98;90.19;100640.18;2820196;84;21645;-62
2021/04/16 02:56:05;;;;;;;8.80;5.45;;;;;;;3.98;90.24;100653.34;2820365;83;21138;-62
2021/04/16 03:00:16;;;;;;;6.83;5.58;;;;;;;4.00;90.31;100658.06;2820247;84;21165;-61
2021/04/16 03:04:20;;;;;;;6.20;4.97;;;;;;;4.02;90.29;100658.84;2819810;84;21615;-63
2021/04/16 03:08:23;;;;;;;9.38;6.75;;;;;;;4.02;90.44;100667.19;2820693;84;21178;-61
2021/04/16 03:12:25;;;;;;;6.53;5.80;;;;;;;4.06;90.48;100664.34;2820443;84;21203;-62
2021/04/16 03:16:32;;;;;;;6.35;5.85;;;;;;;4.08;90.28;100671.70;2809394;84;21227;-62
2021/04/16 03:20:35;;;;;;;8.78;6.40;;;;;;;4.10;90.26;100665.89;2743246;86;21667;-61
2021/04/16 03:24:38;;;;;;;8.03;6.05;;;;;;;4.09;90.26;100668.13;2743209;86;21141;-62
2021/04/16 03:28:41;;;;;;;8.20;6.20;;;;;;;4.06;90.46;100670.92;2742695;86;21633;-62
2021/04/16 03:32:44;;;;;;;6.05;5.15;;;;;;;4.09;90.64;100670.77;2743291;86;21626;-62
2021/04/16 03:36:49;;;;;;;6.85;6.15;;;;;;;4.09;90.48;100660.72;2745514;86;21120;-62
2021/04/16 03:40:52;;;;;;;7.25;4.72;;;;;;;4.03;90.59;100666.25;2743466;86;21158;-61
2021/04/16 03:44:57;;;;;;;8.88;6.00;;;;;;;4.02;90.76;100672.00;2791516;85;21189;-62
2021/04/16 03:49:00;;;;;;;7.30;6.15;;;;;;;4.02;90.92;100665.42;2743226;86;21326;-61
2021/04/16 03:53:06;;;;;;;6.90;4.85;;;;;;;4.00;90.40;100668.59;2722122;86;21182;-61
2021/04/16 03:57:09;;;;;;;6.97;6.20;;;;;;;3.90;90.45;100670.81;2738562;86;21154;-62
2021/04/16 04:01:13;;;;;;;11.48;7.95;;;;;;;3.88;90.87;100665.22;2723450;86;21760;-62
2021/04/16 04:05:17;;;;;;;13.32;10.45;;;;;;;3.92;91.24;100665.45;2762539;86;21165;-62
2021/04/16 04:09:21;;;;;;;8.83;7.92;;;;;;;3.95;91.43;100664.86;2762736;86;21180;-62
2021/04/16 04:13:27;;;;;;;12.07;9.00;;;;;;;3.97;91.73;100664.80;2762382;86;21121;-62
2021/04/16 04:17:35;;;;;;;10.72;9.65;;;;;;;3.98;91.82;100667.34;2791705;84;21160;-62
2021/04/16 04:21:39;;;;;;;10.35;9.33;;;;;;;4.05;91.82;100666.58;2812317;84;21611;-62
2021/04/16 04:25:43;;;;;;;11.15;8.68;;;;;;;4.07;91.77;100662.09;2810042;84;21575;-61
2021/04/16 04:29:47;;;;;;;12.90;8.58;;;;;;;4.08;91.90;100667.75;2820295;84;21599;-62
2021/04/16 04:33:50;;;;;;;10.20;8.50;;;;;;;4.10;91.85;100667.20;2820773;84;21186;-61
2021/04/16 04:37:53;;;;;;;14.33;8.85;;;;;;;4.12;91.88;100671.93;2820827;84;21185;-61
2021/04/16 04:41:57;;;;;;;11.50;9.83;;;;;;;4.13;91.84;100682.88;2820721;84;21659;-61
2021/04/16 04:46:00;;;;;;;9.33;8.38;;;;;;;4.18;91.98;100690.53;2776097;84;21149;-61
2021/04/16 04:50:05;;;;;;;8.90;7.85;;;;;;;4.20;91.72;100687.84;2720018;87;21145;-61
2021/04/16 04:54:09;;;;;;;9.48;8.30;;;;;;;4.20;91.80;100689.98;2720430;87;21177;-61
2021/04/16 04:58:12;;;;;;;9.58;8.58;;;;;;;4.20;91.66;100675.98;2720004;87;21611;-61
2021/04/16 05:02:18;;;;;;;8.40;6.03;;;;;;;4.19;91.73;100686.97;2720014;87;21410;-61
2021/04/16 05:06:21;;;;;;;9.08;5.65;;;;;;;4.23;91.90;100677.15;2720375;87;21184;-61
2021/04/16 05:10:24;;;;;;;7.35;6.58;;;;;;;4.23;91.78;100678.47;2720097;87;21169;-61
2021/04/16 05:14:28;;;;;;;8.33;5.53;;;;;;;4.18;91.96;100680.48;2719878;87;21193;-61
2021/04/16 05:18:31;;;;;;;8.23;6.60;;;;;;;4.20;92.23;100681.25;2751903;85;21181;-61
2021/04/16 05:22:34;;;;;;;8.43;5.90;;;;;;;4.20;92.30;100693.94;2764293;86;21173;-61
2021/04/16 05:26:40;;;;;;;7.83;5.62;;;;;;;4.25;92.31;100692.41;2764283;86;21170;-61
2021/04/16 05:30:43;;;;;;;7.83;4.87;;;;;;;4.28;92.30;100694.88;2764470;86;21158;-61
2021/04/16 05:34:46;;;;;;;6.42;4.35;;;;;;;4.32;92.33;100698.23;2764076;86;21173;-60
2021/04/16 05:38:49;;;;;;;7.58;5.03;;;;;;;4.35;92.29;100703.34;2764141;86;21201;-61
2021/04/16 05:42:53;;;;;;;8.50;5.85;;;;;;;4.35;92.46;100696.76;2764009;86;21141;-61
2021/04/16 05:46:56;;;;;;;7.10;5.95;;;;;;;4.38;92.45;100684.30;2764211;86;21145;-58
2021/04/16 05:50:59;;;;;;;10.25;6.78;;;;;;;4.44;92.36;100696.32;2764262;86;21582;-59
2021/04/16 05:55:04;;;;;;;6.50;5.45;;;;;;;4.44;92.12;100692.37;2764182;86;21149;-59
2021/04/16 05:59:06;;;;;;;7.75;5.87;;;;;;;4.48;92.12;100700.95;2764498;86;21178;-58
2021/04/16 06:03:10;;;;;;;7.58;5.97;;;;;;;4.48;92.08;100689.09;2764713;86;21103;-59
2021/04/16 06:07:13;;;;;;;9.60;5.72;;;;;;;4.47;92.11;100700.56;2764375;86;21126;-58
2021/04/16 06:11:16;;;;;;;6.37;5.50;;;;;;;4.51;92.29;100696.39;2764674;86;21193;-59
2021/04/16 06:15:26;;;;;;;7.47;5.42;;;;;;;4.55;92.08;100702.38;2764297;86;21145;-58
2021/04/16 06:19:28;;;;;;;16.37;5.50;;;;;;;4.57;92.16;100707.93;2764360;85;21181;-58
2021/04/16 06:23:34;;;;;;;7.62;5.03;;;;;;;4.58;92.18;100708.31;2763682;86;21134;-59
2021/04/16 06:27:37;;;;;;;8.38;6.85;;;;;;;4.56;91.92;100711.98;2764356;86;21142;-58
2021/04/16 06:31:40;;;;;;;8.05;6.97;;;;;;;4.58;92.07;100720.17;2764408;86;21451;-58
2021/04/16 06:35:51;;;;;;;7.95;7.15;;;;;;;4.64;92.08;100720.83;2764417;86;21165;-59
2021/04/16 06:39:54;;;;;;;7.28;5.30;;;;;;;4.70;92.05;100717.87;2764631;86;21173;-58
2021/04/16 06:44:04;;;;;;;6.28;5.67;;;;;;;4.78;91.82;100716.17;2764383;86;21146;-58
2021/04/16 06:48:09;;;;;;;5.33;4.80;;;;;;;4.79;91.67;100714.75;2764365;86;21185;-59
2021/04/16 06:52:37;;;;;;;6.22;5.58;;;;;;;4.81;91.67;100716.00;2764622;86;21130;-59
2021/04/16 06:56:44;;;;;;;7.75;6.72;;;;;;;4.81;91.66;100717.33;2764224;86;21154;-58
2021/04/16 07:01:11;;;;;;;6.30;5.50;;;;;;;4.90;91.77;100712.88;2764434;86;21174;-59
2021/04/16 07:05:31;;;;;;;6.08;4.85;;;;;;;4.93;91.59;100707.93;2764386;86;22216;-59
2021/04/16 07:09:39;;;;;;;6.92;5.85;;;;;;;4.96;91.53;100712.59;2764373;86;21161;-59
2021/04/16 07:13:42;;;;;;;8.80;5.80;;;;;;;5.03;91.47;100710.95;2764365;86;21161;-59
2021/04/16 07:17:48;;;;;;;7.37;5.83;;;;;;;5.03;91.23;100720.17;2764432;85;21174;-58
2021/04/16 07:22:25;;;;;;;8.43;5.47;;;;;;;5.05;91.24;100715.67;2764556;86;21587;-58
2021/04/16 07:26:42;;;;;;;9.13;6.62;;;;;;;5.05;90.97;100726.22;2764548;86;21161;-58
2021/04/16 07:30:50;;;;;;;7.45;6.00;;;;;;;5.04;91.00;100716.61;2764266;86;21194;-58
2021/04/16 07:34:54;;;;;;;6.28;5.65;;;;;;;4.98;90.80;100716.00;2764425;86;21499;-59
2021/04/16 07:39:33;;;;;;;12.18;7.85;;;;;;;4.97;90.97;100705.06;2764197;86;21177;-58
2021/04/16 07:43:44;;;;;;;12.60;8.15;;;;;;;4.99;91.09;100717.70;2764127;86;21215;-58
2021/04/16 07:47:48;;;;;;;18.07;14.28;;;;;;;5.02;91.28;100719.79;2766235;84;21169;-58
2021/04/16 07:51:56;;;;;;;10.98;9.75;;;;;;;5.00;91.24;100718.09;2794350;84;21186;-58
2021/04/16 07:56:22;;;;;;;12.53;8.85;;;;;;;5.05;91.47;100725.77;2820531;84;21655;-58
2021/04/16 08:00:39;;;;;;;12.15;9.43;;;;;;;5.05;91.13;100734.12;2819706;84;21182;-58
2021/04/16 08:04:42;;;;;;;14.73;11.48;;;;;;;5.08;91.48;100731.33;2819893;84;21593;-58
2021/04/16 08:08:46;;;;;;;13.80;11.30;;;;;;;5.12;90.91;100728.94;2820026;84;22133;-59
2021/04/16 08:12:49;;;;;;;9.10;6.33;;;;;;;5.14;90.79;100724.44;2819572;84;21473;-58
2021/04/16 08:17:03;;;;;;;9.35;8.23;;;;;;;5.18;91.07;100723.34;2819614;84;21811;-59
2021/04/16 08:21:19;;;;;;;12.00;8.08;;;;;;;5.19;90.62;100727.68;2819537;84;21151;-59
2021/04/16 08:25:34;;;;;;;;;;;;;;;5.21;90.54;100729.77;2822156;84;21178;-58
2021/04/16 08:29:46;;;;;;;10.68;8.35;;;;;;;5.27;90.60;100723.33;2772342;85;20207;-59
2021/04/16 08:33:54;;;;;;;8.65;7.45;;;;;;;5.23;90.34;100727.90;2818897;84;21166;-58
2021/04/16 08:38:03;;;;;;;13.83;8.65;;;;;;;5.25;90.26;100726.03;2819673;84;21190;-58
2021/04/16 08:42:25;;;;;;;9.43;8.48;;;;;;;5.32;90.60;100726.56;2819306;83;21600;-58
2021/04/16 08:46:37;;;;;;;12.78;9.43;;;;;;;5.35;90.08;100740.07;2819230;84;21173;-58
2021/04/16 08:50:45;;;;;;;9.23;5.67;;;;;;;5.38;90.18;100735.46;2820152;84;21150;-59
2021/04/16 08:54:51;;;;;;;7.05;5.62;;;;;;;5.40;90.03;100738.03;2820314;84;21214;-60
2021/04/16 08:58:54;;;;;;;12.30;7.37;;;;;;;5.48;90.14;100743.74;2820584;84;21170;-61
2021/04/16 09:03:01;;;;;;;11.05;8.83;;;;;;;5.57;90.19;100747.23;2818666;84;21206;-60
2021/04/16 09:07:04;;;;;;;8.53;7.62;;;;;;;5.64;90.18;100750.39;2796548;84;21182;-60
2021/04/16 09:11:10;;;;;;;22.62;11.70;;;;;;;5.71;89.92;100746.48;2820484;84;21182;-61
2021/04/16 09:15:28;;;;;;;8.08;7.25;;;;;;;5.73;89.90;100750.37;2820318;84;21178;-61
2021/04/16 09:19:36;;;;;;;15.10;9.95;;;;;;;5.88;89.66;100745.16;2820337;84;21193;-61
2021/04/16 09:23:47;;;;;;;8.38;6.80;;;;;;;6.04;90.04;100744.73;2820294;84;21146;-60
2021/04/16 09:27:50;;;;;;;14.58;9.98;;;;;;;6.18;89.83;100740.00;2820599;84;21174;-61
2021/04/16 09:32:01;;;;;;;8.10;5.45;;;;;;;6.20;89.18;100742.56;2820478;84;21170;-61
2021/04/16 09:36:30;;;;;;;22.52;11.95;;;;;;;6.26;88.91;100732.96;2820698;84;21155;-61
2021/04/16 09:40:34;;;;;;;9.65;6.95;;;;;;;6.27;88.73;100750.52;2820593;84;21178;-61
2021/04/16 09:44:44;;;;;;;19.30;9.98;;;;;;;6.24;88.32;100749.37;2820378;84;21785;-61
2021/04/16 09:48:50;;;;;;;10.45;8.58;;;;;;;6.22;88.30;100753.90;2819977;84;21625;-61
2021/04/16 09:53:26;;;;;;;11.28;7.33;;;;;;;6.28;88.79;100746.48;2820520;84;21198;-61
2021/04/16 09:57:43;;;;;;;9.83;7.30;;;;;;;6.32;89.09;100752.45;2820514;84;21668;-61
2021/04/16 10:02:18;;;;;;;;;;;;;;;6.39;88.55;100752.96;2822955;84;21138;-61
2021/04/16 10:06:43;;;;;;;10.95;6.90;;;;;;;6.42;88.56;100753.62;2773685;85;20255;-61
2021/04/16 10:10:46;;;;;;;12.90;9.43;;;;;;;6.53;88.57;100744.23;2773921;85;21167;-61
2021/04/16 10:14:49;;;;;;;11.68;6.95;;;;;;;6.66;89.29;100750.50;2764421;86;21171;-61
2021/04/16 10:18:53;;;;;;;10.05;8.85;;;;;;;6.67;88.18;100748.72;2759354;86;21191;-61
2021/04/16 10:23:04;;;;;;;13.45;9.45;;;;;;;6.65;88.11;100746.64;2752567;86;21144;-61
2021/04/16 11:17:03;;;;;;;23.10;14.00;;;;;;;6.74;88.52;100720.13;2807596;84;21135;-61
2021/04/16 12:40:16;;;;;;;12.78;8.63;;;;;;;7.42;87.37;100731.93;2814999;84;21179;-58
2021/04/16 12:44:38;;;;;;;12.50;9.28;;;;;;;7.49;87.59;100733.27;2773902;84;21630;-59
2021/04/16 12:48:42;;;;;;;11.30;8.68;;;;;;;7.50;86.69;100740.27;2794018;85;21195;-59
2021/04/16 12:52:46;;;;;;;12.58;8.58;;;;;;;7.52;86.86;100737.05;2820277;84;21182;-58
2021/04/16 12:56:49;;;;;;;19.20;10.90;;;;;;;7.58;87.16;100737.98;2784783;84;21160;-59
2021/04/16 13:00:52;;;;;;;23.92;11.40;;;;;;;7.64;86.87;100731.92;2769756;85;21623;-58
2021/04/16 13:05:01;;;;;;;17.70;10.98;;;;;;;7.61;86.28;100731.66;2770632;85;21152;-59
2021/04/16 13:09:05;;;;;;;;;;;;;;;7.61;86.27;100726.36;2772130;85;21165;-59
2021/04/16 13:13:09;;;;;;;14.00;7.92;;;;;;;7.60;86.14;100725.13;2769608;85;29290;-59
2021/04/16 13:17:17;;;;;;;20.37;12.85;;;;;;;7.64;86.51;100723.98;2795195;84;21175;-58
2021/04/16 13:21:29;;;;;;;43.98;27.15;;;;;;;7.69;86.67;100717.45;2818312;84;21188;-61
2021/04/16 13:25:33;;;;;;;45.45;27.93;;;;;;;7.72;85.91;100718.58;2819670;84;21166;-59
2021/04/16 13:29:36;;;;;;;52.38;34.45;;;;;;;7.77;85.88;100716.14;2820310;84;21180;-59
2021/04/16 13:33:43;;;;;;;43.10;25.10;;;;;;;7.79;85.56;100720.38;2770910;85;21729;-60
2021/04/16 13:37:46;;;;;;;39.00;27.37;;;;;;;7.78;85.30;100708.56;2820578;84;21177;-59
2021/04/16 13:41:49;;;;;;;57.13;34.45;;;;;;;7.76;85.51;100696.73;2770983;85;21205;-60
2021/04/16 13:45:52;;;;;;;35.52;22.30;;;;;;;7.76;85.11;100707.33;2820319;83;21200;-60
2021/04/16 13:49:58;;;;;;;20.48;12.93;;;;;;;7.65;85.26;100709.79;2741317;86;21640;-60
2021/04/16 13:54:08;;;;;;;10.65;8.93;;;;;;;7.49;85.99;100715.20;2773343;85;21184;-59
2021/04/16 13:58:11;;;;;;;14.20;7.65;;;;;;;7.49;85.99;100715.20;2793020;85;21151;-60
2021/04/16 14:02:25;;;;;;;9.95;5.67;;;;;;;7.47;86.62;100717.96;2819639;84;21158;-59
2021/04/16 14:06:36;;;;;;;7.97;5.37;;;;;;;7.51;86.95;100717.28;2818415;84;21162;-59
2021/04/16 14:10:43;;;;;;;9.45;4.78;;;;;;;7.58;86.81;100711.51;2815337;84;21148;-60
2021/04/16 14:14:46;;;;;;;5.73;4.97;;;;;;;7.61;86.86;100712.26;2819912;84;21147;-59
2021/04/16 14:18:49;;;;;;;8.30;6.47;;;;;;;7.65;87.01;100710.66;2819797;84;21235;-59
2021/04/16 14:22:53;;;;;;;7.83;4.60;;;;;;;7.65;86.80;100712.44;2785635;84;21176;-59
2021/04/16 14:26:57;;;;;;;7.92;5.45;;;;;;;7.64;85.24;100710.28;2741434;86;21168;-59
2021/04/16 14:31:00;;;;;;;8.38;5.90;;;;;;;7.65;85.23;100711.98;2764432;86;21167;-60
2021/04/16 14:35:06;;;;;;;5.58;4.80;;;;;;;7.70;85.88;100707.72;2764423;86;21168;-59
2021/04/16 14:39:10;;;;;;;5.83;4.45;;;;;;;7.77;85.65;100709.03;2764448;86;21160;-59
2021/04/16 14:43:16;;;;;;;5.50;5.00;;;;;;;7.77;85.42;100701.57;2764419;86;21195;-59
2021/04/16 14:47:19;;;;;;;6.43;5.10;;;;;;;7.75;84.06;100710.92;2764614;86;21147;-59
2021/04/16 14:51:29;;;;;;;6.72;4.80;;;;;;;7.68;84.65;100714.43;2755502;85;21154;-59
2021/04/16 14:55:37;;;;;;;6.72;6.05;;;;;;;7.69;85.25;100709.51;2770292;85;21634;-59
2021/04/16 14:59:45;;;;;;;10.25;6.25;;;;;;;7.63;84.54;100711.23;2770321;85;21209;-59
2021/04/16 15:03:48;;;;;;;10.48;7.42;;;;;;;7.52;84.49;100714.55;2770366;85;21165;-59
2021/04/16 15:08:00;;;;;;;11.18;7.03;;;;;;;7.46;85.34;100721.52;2770378;85;21205;-59
2021/04/16 15:12:05;;;;;;;9.85;5.78;;;;;;;7.50;85.93;100721.73;2770485;85;21181;-59
2021/04/16 15:16:15;;;;;;;8.65;6.92;;;;;;;7.47;86.03;100720.61;2770258;85;21181;-59
2021/04/16 15:20:23;;;;;;;12.33;7.97;;;;;;;7.48;86.17;100724.95;2785409;84;21137;-59
2021/04/16 15:24:28;;;;;;;23.62;10.35;;;;;;;7.46;86.12;100722.02;2767808;85;21639;-59
2021/04/16 15:28:39;;;;;;;36.03;18.45;;;;;;;7.41;86.15;100719.64;2779574;84;21165;-60
2021/04/16 15:32:46;;;;;;;20.05;10.68;;;;;;;7.43;86.47;100713.78;2814528;84;21141;-59
2021/04/16 15:49:46;;;;;;;8.98;5.72;;;;;;;7.47;85.89;100709.16;2816967;84;21179;-60
2021/04/16 15:53:49;;;;;;;5.50;4.97;;;;;;;7.47;85.34;100712.67;2802104;83;21200;-60
2021/04/16 15:57:54;;;;;;;6.97;4.75;;;;;;;7.44;85.23;100704.89;2767836;86;21204;-60
2021/04/16 16:02:00;;;;;;;6.62;4.45;;;;;;;7.43;84.89;100709.81;2817092;84;21185;-61
2021/04/16 16:06:05;;;;;;;10.08;5.50;;;;;;;7.41;84.59;100707.73;2813459;84;21097;-59
2021/04/16 16:10:10;;;;;;;7.37;4.22;;;;;;;7.39;83.75;100708.30;2817020;84;21183;-61
2021/04/16 16:14:22;;;;;;;8.33;5.55;;;;;;;7.40;84.29;100704.70;2816803;84;21172;-61
2021/04/16 16:18:30;;;;;;;8.63;5.65;;;;;;;7.40;84.59;100710.00;2769825;85;21181;-61
2021/04/16 16:22:34;;;;;;;14.65;6.37;;;;;;;7.31;84.80;100711.91;2745784;86;21206;-61
2021/04/16 16:26:43;;;;;;;5.45;4.92;;;;;;;7.26;85.13;100711.69;2742183;86;21559;-61
2021/04/16 16:30:47;;;;;;;14.85;11.20;;;;;;;7.23;85.19;100704.44;2790503;85;21625;-61
2021/04/16 16:34:50;;;;;;;11.60;8.45;;;;;;;7.15;84.69;100712.84;2744394;86;21166;-61
2021/04/16 16:38:53;;;;;;;43.33;26.60;;;;;;;7.09;85.07;100703.95;2773788;85;21197;-61
2021/04/16 16:43:09;;;;;;;37.65;21.35;;;;;;;7.05;85.44;100704.61;2744690;86;21204;-61
2021/04/16 16:47:14;;;;;;;21.95;15.93;;;;;;;7.03;85.44;100704.31;2744121;86;21773;-61
2021/04/16 16:51:23;;;;;;;11.00;7.10;;;;;;;7.04;85.76;100703.36;2754956;85;21706;-61
2021/04/16 16:55:26;;;;;;;8.75;6.95;;;;;;;7.09;86.34;100702.15;2741084;86;21636;-61
2021/04/16 16:59:36;;;;;;;9.30;4.95;;;;;;;7.12;86.11;100701.13;2742239;86;21151;-61
2021/04/16 17:03:39;;;;;;;14.55;11.20;;;;;;;7.12;86.03;100702.45;2695749;88;21150;-61
2021/04/16 17:07:43;;;;;;;15.98;9.38;;;;;;;7.11;86.21;100699.42;2742191;86;21653;-61
2021/04/16 17:11:46;;;;;;;15.75;8.88;;;;;;;7.08;86.32;100705.74;2742191;86;21200;-61
2021/04/16 17:15:58;;;;;;;9.98;5.30;;;;;;;7.06;86.21;100703.66;2786022;85;21538;-62
2021/04/16 17:20:05;;;;;;;11.68;6.78;;;;;;;7.03;86.11;100703.86;2794192;84;21203;-61
2021/04/16 17:24:10;;;;;;;11.45;7.12;;;;;;;7.03;86.11;100706.95;2770465;84;21153;-63
2021/04/16 17:28:20;;;;;;;9.45;6.35;;;;;;;7.04;86.56;100708.20;2819247;84;21185;-62
2021/04/16 17:32:23;;;;;;;8.23;6.35;;;;;;;7.09;86.52;100715.86;2818619;84;21181;-62
2021/04/16 17:36:27;;;;;;;7.22;4.78;;;;;;;7.14;86.28;100716.43;2819424;84;21189;-62
2021/04/16 17:40:33;;;;;;;7.72;5.87;;;;;;;7.11;85.98;100717.45;2818457;83;21187;-62
2021/04/16 17:44:36;;;;;;;10.32;7.47;;;;;;;7.05;86.23;100719.16;2819077;84;21159;-62
2021/04/16 17:48:48;;;;;;;11.45;6.78;;;;;;;7.10;86.62;100710.46;2819215;84;21181;-62
2021/04/16 17:52:57;;;;;;;14.75;12.25;;;;;;;7.16;86.33;100710.57;2769889;84;21186;-62
2021/04/16 17:57:00;;;;;;;15.08;12.07;;;;;;;7.22;86.05;100714.16;2817990;84;21177;-62
2021/04/16 18:01:12;;;;;;;15.55;11.35;;;;;;;7.31;85.73;100716.71;2768217;84;21181;-62
2021/04/16 18:05:16;;;;;;;9.50;7.70;;;;;;;7.39;85.43;100722.86;2803373;84;21177;-62
2021/04/16 18:09:22;;;;;;;16.65;9.43;;;;;;;7.46;85.24;100725.50;2809124;84;21225;-62
2021/04/16 18:13:25;;;;;;;11.03;9.03;;;;;;;7.48;84.97;100721.45;2808858;84;21149;-62
2021/04/16 18:17:28;;;;;;;13.03;7.55;;;;;;;7.43;84.86;100725.23;2763683;84;21648;-62
2021/04/16 18:21:36;;;;;;;7.03;5.10;;;;;;;7.33;84.68;100725.41;2775452;84;21161;-62
2021/04/16 18:25:43;;;;;;;8.25;5.25;;;;;;;7.25;85.00;100725.88;2819719;84;21129;-62
2021/04/16 18:29:47;;;;;;;14.95;7.10;;;;;;;7.24;85.11;100727.30;2819277;84;21155;-62
2021/04/16 18:33:52;;;;;;;9.75;8.25;;;;;;;7.21;85.13;100727.01;2770484;84;21173;-62
2021/04/16 18:38:00;;;;;;;14.28;9.70;;;;;;;7.19;85.33;100730.22;2770517;85;21157;-62
2021/04/16 18:42:04;;;;;;;14.07;10.70;;;;;;;7.20;85.53;100727.12;2769900;85;21170;-61
2021/04/16 18:46:11;;;;;;;15.55;10.53;;;;;;;7.19;85.63;100730.22;2825186;83;21206;-62
2021/04/16 18:50:20;;;;;;;12.33;9.28;;;;;;;7.18;85.80;100728.52;2814712;83;21170;-62
2021/04/16 18:54:30;;;;;;;18.45;10.05;;;;;;;7.20;85.95;100729.28;2812567;84;21619;-62
2021/04/16 18:58:34;;;;;;;11.25;8.65;;;;;;;7.22;86.00;100731.84;2816706;84;21620;-62
2021/04/16 19:02:37;;;;;;;13.28;8.85;;;;;;;7.25;86.04;100725.88;2819436;84;21655;-62
2021/04/16 19:06:46;;;;;;;12.35;8.65;;;;;;;7.31;86.13;100728.63;2819985;84;21166;-62
2021/04/16 19:10:50;;;;;;;8.53;7.58;;;;;;;7.35;86.01;100726.65;2777026;85;21236;-61
2021/04/16 19:14:57;;;;;;;11.80;10.38;;;;;;;7.41;85.83;100721.83;2770945;85;21218;-61
2021/04/16 19:19:01;;;;;;;10.95;8.00;;;;;;;7.48;85.60;100719.66;2819516;84;21678;-62
2021/04/16 19:23:13;;;;;;;10.20;8.75;;;;;;;7.54;85.47;100717.08;2815020;84;21611;-62
2021/04/16 19:27:18;;;;;;;10.00;7.80;;;;;;;7.61;85.42;100715.77;2820230;83;21150;-62
2021/04/16 19:31:25;;;;;;;14.80;9.60;;;;;;;7.64;85.19;100714.25;2819331;84;21129;-62
2021/04/16 19:35:28;;;;;;;16.32;11.22;;;;;;;7.69;85.15;100715.30;2771141;84;21150;-61
2021/04/16 19:39:35;;;;;;;17.65;11.83;;;;;;;7.75;84.97;100712.25;2820670;84;21166;-61
2021/04/16 19:43:39;;;;;;;17.92;15.63;;;;;;;7.73;84.76;100707.53;2819792;84;21176;-62
2021/04/16 20:16:55;;;;;;;22.95;15.05;;;;;;;7.66;86.11;100695.14;2820177;84;21153;-61
2021/04/16 20:18:00;;;;;;;20.65;15.20;;;;;;;7.56;86.01;100698.84;2816598;84;21622;-62
2021/04/16 20:22:07;;;;;;;26.17;16.42;;;;;;;7.52;86.50;100700.45;2807997;83;21144;-61
2021/04/16 20:26:30;;;;;;;21.23;15.15;;;;;;;7.50;86.43;100695.72;2791410;85;21930;-61
2021/04/16 20:30:42;;;;;;;26.35;16.65;;;;;;;7.49;86.48;100694.89;2791099;85;21611;-61
2021/04/16 20:34:53;;;;;;;24.20;16.48;;;;;;;7.45;86.43;100689.38;2791128;85;21641;-61
2021/04/16 20:38:58;;;;;;;24.98;14.78;;;;;;;7.48;86.31;100684.38;2791606;85;21145;-61
2021/04/16 20:43:04;;;;;;;19.00;10.98;;;;;;;7.46;86.12;100687.60;2743423;86;21192;-61
2021/04/16 20:47:13;;;;;;;22.45;13.20;;;;;;;7.41;85.79;100686.56;2745695;86;21214;-61
2021/04/16 20:51:38;;;;;;;17.15;11.97;;;;;;;7.37;85.37;100691.22;2791467;85;21133;-61
2021/04/16 20:55:50;;;;;;;24.37;10.78;;;;;;;7.35;85.22;100689.59;2790855;85;21664;-62
2021/04/16 20:59:54;;;;;;;10.80;8.30;;;;;;;7.32;84.58;100692.44;2790497;85;21170;-61
2021/04/16 21:04:01;;;;;;;10.32;8.05;;;;;;;7.26;84.53;100697.14;2743283;86;21190;-61
2021/04/16 21:08:16;;;;;;;13.30;9.93;;;;;;;7.21;84.53;100694.42;2743405;86;21165;-61
2021/04/16 21:12:25;;;;;;;20.65;11.00;;;;;;;7.19;84.71;100689.21;2743226;86;21665;-62
2021/04/16 21:16:32;;;;;;;12.05;9.15;;;;;;;7.16;85.02;100694.70;2768881;85;21175;-62
2021/04/16 21:20:47;;;;;;;20.32;10.05;;;;;;;7.18;85.28;100688.00;2797619;85;21673;-61
2021/04/16 21:24:54;;;;;;;12.40;9.28;;;;;;;7.14;85.36;100684.68;2766208;86;21137;-62
2021/04/16 21:28:58;;;;;;;21.42;9.03;;;;;;;7.15;85.45;100679.77;2743300;86;21186;-62
2021/04/16 21:33:16;;;;;;;13.88;7.87;;;;;;;7.14;85.48;100684.68;2743186;86;21196;-61
2021/04/16 21:37:26;;;;;;;12.85;8.00;;;;;;;7.12;85.46;100677.31;2745453;86;21641;-61
2021/04/16 21:41:34;;;;;;;13.85;7.30;;;;;;;7.13;85.43;100682.98;2743214;86;21171;-61
2021/04/16 21:46:08;;;;;;;10.85;5.62;;;;;;;7.12;85.16;100683.92;2791514;85;21166;-61
2021/04/16 21:50:39;;;;;;;15.70;6.22;;;;;;;7.04;84.91;100688.36;2743326;86;21488;-61
2021/04/16 21:54:42;;;;;;;10.95;5.53;;;;;;;6.98;85.09;100689.58;2743219;86;21172;-61
2021/04/16 21:58:46;;;;;;;10.98;5.90;;;;;;;6.95;85.05;100692.41;2743298;86;21165;-61
2021/04/16 22:02:51;;;;;;;10.93;7.12;;;;;;;6.96;85.32;100694.11;2743081;86;21180;-61